Time;durP1;ratioP1;P1;durP2;ratioP2;P2;SDS_P1;SDS_P2;PMS_P1;PMS_P2;Temp;Humidity;BMP_temperature;BMP_pressure;BME280_temperature;BME280_humidity;BME280_pressure;Samples;Min_cycle;Max_cycle;Signal;HPM_P1;HPM_P2
2022/10/02 00:00:42;;;;;;;16.80;5.20;;;11.90;99.90;;;;;;6002292;23;20019;-88
2022/10/02 00:03:23;;;;;;;15.25;4.63;;;11.90;99.90;;;;;;6002778;23;20016;-87
2022/10/02 00:05:53;;;;;;;15.07;5.05;;;11.80;99.90;;;;;;6004238;23;20101;-86
2022/10/02 00:08:24;;;;;;;18.00;5.00;;;11.80;99.90;;;;;;6003929;23;20044;-87
2022/10/02 00:11:21;;;;;;;14.73;4.75;;;11.90;99.90;;;;;;6004173;23;20027;-87
2022/10/02 00:14:01;;;;;;;16.70;4.53;;;11.80;99.90;;;;;;6002773;23;20800;-87
2022/10/02 00:16:49;;;;;;;18.23;5.18;;;11.80;99.90;;;;;;6003707;23;20435;-87
2022/10/02 00:19:17;;;;;;;15.90;4.88;;;11.80;99.90;;;;;;6004833;23;20446;-87
2022/10/02 00:22:10;;;;;;;11.15;4.30;;;11.90;99.90;;;;;;6003568;23;20016;-87
2022/10/02 00:24:50;;;;;;;16.58;4.50;;;11.90;99.90;;;;;;6000691;23;20019;-86
2022/10/02 00:27:33;;;;;;;17.85;4.47;;;11.90;99.90;;;;;;6000064;23;20016;-87
2022/10/02 00:30:02;;;;;;;15.27;4.00;;;12.00;99.90;;;;;;6000899;23;20018;-87
2022/10/02 00:32:40;;;;;;;11.20;3.88;;;12.00;99.90;;;;;;5999282;23;20027;-88
2022/10/02 00:35:53;;;;;;;12.07;3.28;;;12.10;99.90;;;;;;5999655;23;20030;-87
2022/10/02 00:38:46;;;;;;;14.65;3.85;;;12.10;99.90;;;;;;5914547;24;20078;-87
2022/10/02 00:41:33;;;;;;;13.48;3.75;;;12.10;99.90;;;;;;5912969;24;20024;-87
2022/10/02 00:44:12;;;;;;;13.77;3.63;;;12.10;99.90;;;;;;5892335;24;20148;-87
2022/10/02 00:47:05;;;;;;;11.43;3.30;;;12.10;99.90;;;;;;5892101;24;20021;-86
2022/10/02 00:49:56;;;;;;;11.02;2.90;;;12.20;99.90;;;;;;5892951;24;20454;-86
2022/10/02 00:52:56;;;;;;;12.52;3.63;;;12.20;99.90;;;;;;5915895;24;20401;-86
2022/10/02 00:55:27;;;;;;;11.93;3.08;;;12.10;99.90;;;;;;5917933;24;20017;-87
2022/10/02 00:58:20;;;;;;;11.65;2.83;;;12.10;99.90;;;;;;5895924;24;20055;-87
2022/10/02 01:00:56;;;;;;;11.20;3.30;;;12.10;99.90;;;;;;5892575;24;20072;-88
2022/10/02 01:03:44;;;;;;;11.55;2.85;;;12.10;99.90;;;;;;5895622;24;20017;-88
2022/10/02 01:06:10;;;;;;;10.35;3.50;;;12.00;99.90;;;;;;5896704;24;20076;-87
2022/10/02 01:08:36;;;;;;;11.68;3.28;;;12.00;99.90;;;;;;5918896;24;20045;-87
2022/10/02 01:11:03;;;;;;;12.73;3.40;;;12.10;99.90;;;;;;5918338;24;20036;-87
2022/10/02 01:13:30;;;;;;;11.77;3.85;;;12.00;99.90;;;;;;5893880;24;20115;-88
2022/10/02 01:15:59;;;;;;;12.32;3.95;;;12.00;99.90;;;;;;6002472;23;20023;-87
2022/10/02 01:18:26;;;;;;;11.93;3.50;;;12.00;99.90;;;;;;6002659;23;20019;-87
2022/10/02 01:21:01;;;;;;;10.30;3.20;;;12.00;99.90;;;;;;6002413;23;20118;-87
2022/10/02 01:23:39;;;;;;;11.55;3.38;;;12.00;99.90;;;;;;6002472;23;20019;-87
2022/10/02 01:26:05;;;;;;;14.02;3.58;;;12.10;99.90;;;;;;6003852;23;20023;-88
2022/10/02 01:28:31;;;;;;;11.65;3.10;;;12.00;99.90;;;;;;6004273;23;20012;-86
2022/10/02 01:31:03;;;;;;;11.43;3.20;;;11.90;99.90;;;;;;6004559;23;20038;-87
2022/10/02 01:33:30;;;;;;;10.95;3.22;;;12.00;99.90;;;;;;6003789;23;20088;-87
2022/10/02 01:35:56;;;;;;;11.57;3.25;;;12.00;99.90;;;;;;6005436;23;20020;-87
2022/10/02 01:38:23;;;;;;;12.68;3.72;;;12.00;99.90;;;;;;6003104;23;20027;-88
2022/10/02 01:40:49;;;;;;;12.25;2.95;;;12.00;99.90;;;;;;6005580;23;20070;-87
2022/10/02 01:43:25;;;;;;;12.80;3.20;;;12.00;99.90;;;;;;6003801;23;20016;-87
2022/10/02 01:46:06;;;;;;;13.10;3.70;;;12.00;99.90;;;;;;6004670;23;20083;-87
2022/10/02 01:48:50;;;;;;;11.00;3.35;;;12.10;99.90;;;;;;6002386;23;20016;-88
2022/10/02 01:51:40;;;;;;;12.07;3.80;;;12.10;99.90;;;;;;6002482;23;20092;-87
2022/10/02 01:54:17;;;;;;;13.15;3.75;;;12.10;99.90;;;;;;6003314;23;20020;-87
2022/10/02 01:57:11;;;;;;;13.82;4.15;;;12.20;99.90;;;;;;6004575;23;20020;-87
2022/10/02 01:59:55;;;;;;;12.82;3.70;;;12.20;99.90;;;;;;6003929;23;20019;-87
2022/10/02 02:02:30;;;;;;;14.98;3.75;;;12.20;99.90;;;;;;6002652;23;20055;-88
2022/10/02 02:05:01;;;;;;;13.00;4.15;;;12.20;99.90;;;;;;6004041;23;20020;-89
2022/10/02 02:07:51;;;;;;;14.15;4.28;;;12.20;99.90;;;;;;6001793;23;20086;-87
2022/10/02 02:10:22;;;;;;;13.75;4.75;;;12.20;99.90;;;;;;6002591;23;20481;-87
2022/10/02 02:13:15;;;;;;;14.55;4.03;;;12.20;99.90;;;;;;6003577;23;20019;-87
2022/10/02 02:15:53;;;;;;;15.20;4.40;;;12.20;99.90;;;;;;6001905;23;20031;-87
2022/10/02 02:18:32;;;;;;;16.02;4.10;;;12.20;99.90;;;;;;6005471;23;20015;-87
2022/10/02 02:21:07;;;;;;;13.13;4.15;;;12.20;99.90;;;;;;6008312;23;20379;-87
2022/10/02 02:23:36;;;;;;;13.95;4.55;;;12.20;99.90;;;;;;6010173;23;20012;-86
2022/10/02 02:26:07;;;;;;;14.18;4.25;;;12.20;99.90;;;;;;6003471;23;20079;-87
2022/10/02 02:28:35;;;;;;;15.45;4.30;;;12.20;99.90;;;;;;6026756;23;20811;-86
2022/10/02 02:31:03;;;;;;;18.35;4.50;;;12.20;99.90;;;;;;6004473;23;20067;-87
2022/10/02 02:33:37;;;;;;;14.48;4.35;;;12.20;99.90;;;;;;6002948;23;20016;-87
2022/10/02 02:36:12;;;;;;;14.82;4.00;;;12.10;99.90;;;;;;6003476;23;20373;-88
2022/10/02 02:38:45;;;;;;;15.38;4.10;;;12.10;99.90;;;;;;6003440;23;20012;-88
2022/10/02 02:41:14;;;;;;;13.70;4.10;;;12.20;99.90;;;;;;6003165;23;20319;-87
2022/10/02 02:43:57;;;;;;;13.30;4.00;;;12.10;99.90;;;;;;6001950;23;20027;-88
2022/10/02 02:47:02;;;;;;;13.52;3.90;;;12.10;99.90;;;;;;6002921;23;20015;-88
2022/10/02 02:49:33;;;;;;;15.30;4.03;;;12.10;99.90;;;;;;6003075;23;20016;-87
2022/10/02 02:52:02;;;;;;;15.43;3.95;;;12.10;99.90;;;;;;6004599;23;20016;-87
2022/10/02 02:54:45;;;;;;;15.20;4.20;;;12.10;99.90;;;;;;6002197;23;20076;-86
2022/10/02 02:57:13;;;;;;;14.73;4.80;;;12.20;99.90;;;;;;6002997;23;20052;-87
2022/10/02 02:59:43;;;;;;;15.57;4.65;;;12.10;99.90;;;;;;6001613;23;20019;-87
2022/10/02 03:02:09;;;;;;;12.18;3.95;;;12.20;99.90;;;;;;6001973;23;20473;-88
2022/10/02 03:04:34;;;;;;;13.27;4.18;;;12.20;99.90;;;;;;6001739;23;20019;-87
2022/10/02 03:07:03;;;;;;;16.70;5.15;;;12.10;99.90;;;;;;6004075;23;20019;-88
2022/10/02 03:09:32;;;;;;;13.77;3.90;;;12.20;99.90;;;;;;6003851;23;20043;-87
2022/10/02 03:12:06;;;;;;;16.55;4.43;;;12.20;99.90;;;;;;6001784;23;20012;-87
2022/10/02 03:14:50;;;;;;;13.30;3.80;;;12.20;99.90;;;;;;6001439;23;20024;-87
2022/10/02 03:17:32;;;;;;;14.55;3.67;;;12.20;99.90;;;;;;6000029;23;20019;-87
2022/10/02 03:20:16;;;;;;;12.70;3.85;;;12.20;99.90;;;;;;6001592;23;20019;-87
2022/10/02 03:23:04;;;;;;;10.52;3.53;;;12.20;99.90;;;;;;6001797;23;20020;-87
2022/10/02 03:25:38;;;;;;;12.63;3.22;;;12.20;99.90;;;;;;6000448;23;20023;-88
2022/10/02 03:28:17;;;;;;;13.25;3.10;;;12.20;99.90;;;;;;6001846;23;20976;-87
2022/10/02 03:30:44;;;;;;;11.82;3.15;;;12.20;99.90;;;;;;6001086;23;20019;-87
2022/10/02 03:33:13;;;;;;;14.82;3.20;;;12.10;99.90;;;;;;6003024;23;20070;-87
2022/10/02 03:35:39;;;;;;;13.10;3.20;;;12.10;99.90;;;;;;6002771;23;20034;-87
2022/10/02 03:38:08;;;;;;;12.98;3.17;;;12.10;99.90;;;;;;6002298;23;20409;-87
2022/10/02 03:40:33;;;;;;;12.18;3.30;;;12.10;99.90;;;;;;6002320;23;20038;-87
2022/10/02 03:43:00;;;;;;;10.93;2.85;;;12.10;99.90;;;;;;6003053;23;20095;-87
2022/10/02 03:45:26;;;;;;;12.02;2.88;;;12.10;99.90;;;;;;6005752;23;20047;-87
2022/10/02 03:47:52;;;;;;;12.80;2.78;;;12.10;99.90;;;;;;6002318;23;20035;-87
2022/10/02 03:50:18;;;;;;;11.43;2.90;;;12.10;99.90;;;;;;6004820;23;20012;-87
2022/10/02 03:52:44;;;;;;;12.18;2.88;;;12.00;99.90;;;;;;6001943;23;20031;-86
2022/10/02 03:55:32;;;;;;;10.38;2.83;;;12.00;99.90;;;;;;6004400;23;20088;-87
2022/10/02 03:58:07;;;;;;;12.80;2.90;;;12.00;99.90;;;;;;6000830;23;20015;-87
2022/10/02 04:00:40;;;;;;;9.48;2.92;;;12.00;99.90;;;;;;5999550;23;20023;-87
2022/10/02 04:03:14;;;;;;;13.27;3.03;;;12.00;99.90;;;;;;6000871;23;20027;-87
2022/10/02 04:05:54;;;;;;;12.45;2.83;;;11.90;99.90;;;;;;6000609;23;20024;-88
2022/10/02 04:08:34;;;;;;;14.52;3.03;;;11.90;99.90;;;;;;6001523;23;20031;-87
2022/10/02 04:11:13;;;;;;;9.82;2.80;;;11.80;99.90;;;;;;6002250;23;20024;-88
2022/10/02 04:13:58;;;;;;;10.70;2.42;;;11.90;99.90;;;;;;6004982;23;20039;-87
2022/10/02 04:16:46;;;;;;;14.60;3.40;;;11.90;99.90;;;;;;6005691;23;20102;-86
2022/10/02 04:19:34;;;;;;;13.10;2.88;;;11.90;99.90;;;;;;6008019;23;20041;-88
2022/10/02 04:22:35;;;;;;;12.30;3.28;;;11.90;99.90;;;;;;6006106;23;20539;-87
2022/10/02 04:25:11;;;;;;;9.13;2.75;;;11.90;99.90;;;;;;5990002;23;20020;-87
2022/10/02 04:27:46;;;;;;;9.60;2.88;;;11.80;99.90;;;;;;6003280;23;20027;-87
2022/10/02 04:30:17;;;;;;;11.10;2.90;;;11.80;99.90;;;;;;6003441;23;20043;-87
2022/10/02 04:32:43;;;;;;;12.02;3.28;;;11.80;99.90;;;;;;6006035;23;20016;-86
2022/10/02 04:35:32;;;;;;;12.85;3.03;;;11.80;99.90;;;;;;6007333;23;20047;-87
2022/10/02 04:38:25;;;;;;;15.02;3.33;;;11.80;99.90;;;;;;6009086;23;20023;-87
2022/10/02 04:40:56;;;;;;;13.70;3.13;;;11.80;99.90;;;;;;6004230;23;20096;-87
2022/10/02 04:43:41;;;;;;;;;;;11.80;99.90;;;;;;6004139;23;20099;-87
2022/10/02 04:46:10;;;;;;;13.55;3.20;;;11.70;99.90;;;;;;6005509;23;19922;-87
2022/10/02 04:49:04;;;;;;;12.05;3.13;;;11.70;99.90;;;;;;6003294;23;20019;-88
2022/10/02 04:51:35;;;;;;;12.18;3.00;;;11.70;99.90;;;;;;6002281;23;20030;-87
2022/10/02 04:54:11;;;;;;;13.40;3.00;;;11.70;99.90;;;;;;6002648;23;20470;-87
2022/10/02 04:56:54;;;;;;;13.20;3.30;;;11.70;99.90;;;;;;6003352;23;20024;-87
2022/10/02 04:59:51;;;;;;;14.82;3.67;;;11.70;99.90;;;;;;6004538;23;20012;-88
2022/10/02 05:02:34;;;;;;;14.05;3.60;;;11.70;99.90;;;;;;6000807;23;20079;-87
2022/10/02 05:05:35;;;;;;;15.43;3.40;;;11.70;99.90;;;;;;6003558;23;20019;-87
2022/10/02 05:08:38;;;;;;;16.38;4.03;;;11.60;99.90;;;;;;5895371;24;20017;-86
2022/10/02 05:11:09;;;;;;;13.20;4.53;;;11.60;99.90;;;;;;5892965;24;20025;-87
2022/10/02 05:14:16;;;;;;;12.65;3.83;;;11.60;99.90;;;;;;5895330;24;20468;-87
2022/10/02 05:16:56;;;;;;;13.90;4.03;;;11.60;99.90;;;;;;5916788;24;20115;-87
2022/10/02 05:19:39;;;;;;;13.27;3.92;;;11.60;99.90;;;;;;5919475;24;20093;-87
2022/10/02 05:22:32;;;;;;;14.70;4.18;;;11.60;99.90;;;;;;5917215;24;20286;-86
2022/10/02 05:25:23;;;;;;;14.32;4.25;;;11.50;99.90;;;;;;5895267;24;20029;-86
2022/10/02 05:28:13;;;;;;;14.27;4.45;;;11.50;99.90;;;;;;5918155;24;20381;-86
2022/10/02 05:30:53;;;;;;;17.02;4.40;;;11.50;99.90;;;;;;5917208;24;20458;-88
2022/10/02 05:33:47;;;;;;;14.65;3.95;;;11.50;99.90;;;;;;5918278;24;20029;-87
2022/10/02 05:36:41;;;;;;;14.50;4.60;;;11.50;99.90;;;;;;5917950;24;20025;-86
2022/10/02 05:39:26;;;;;;;14.13;4.00;;;11.50;99.90;;;;;;5918020;24;20013;-87
2022/10/02 05:42:10;;;;;;;15.55;4.70;;;11.50;99.90;;;;;;5966627;23;20015;-85
2022/10/02 05:44:41;;;;;;;17.60;4.40;;;11.50;99.90;;;;;;6005371;23;20019;-86
2022/10/02 05:47:23;;;;;;;13.98;4.57;;;11.50;99.90;;;;;;6020504;23;20094;-86
2022/10/02 05:49:58;;;;;;;13.48;4.68;;;11.50;99.90;;;;;;6003121;23;20515;-88
2022/10/02 05:52:31;;;;;;;15.45;4.47;;;11.50;99.90;;;;;;6001690;23;20016;-89
2022/10/02 05:55:03;;;;;;;15.25;4.22;;;11.50;99.90;;;;;;6002347;23;20024;-88
2022/10/02 05:57:47;;;;;;;17.35;4.72;;;11.50;99.90;;;;;;6005010;23;20011;-88
2022/10/02 06:00:23;;;;;;;17.13;4.65;;;11.60;99.90;;;;;;6002440;23;20023;-88
2022/10/02 06:03:11;;;;;;;16.25;4.57;;;11.50;99.90;;;;;;6002446;23;20026;-89
2022/10/02 06:05:49;;;;;;;14.50;4.28;;;11.60;99.90;;;;;;6004187;23;20011;-89
2022/10/02 06:08:20;;;;;;;17.35;4.57;;;11.50;99.90;;;;;;6003528;23;20031;-88
2022/10/02 06:10:49;;;;;;;;;;;11.60;99.90;;;;;;5978577;23;20375;-88
2022/10/02 06:13:34;;;;;;;13.48;4.20;;;11.50;99.90;;;;;;6003775;23;19922;-88
2022/10/02 06:16:12;;;;;;;15.00;4.45;;;11.50;99.90;;;;;;6004295;23;20027;-88
2022/10/02 06:18:42;;;;;;;15.30;4.13;;;11.60;99.90;;;;;;6002225;23;20464;-90
2022/10/02 06:21:34;;;;;;;16.85;4.53;;;11.60;99.90;;;;;;6002447;23;20013;-88
2022/10/02 06:24:05;;;;;;;14.63;4.35;;;11.70;99.90;;;;;;6001609;23;20075;-89
2022/10/02 06:26:42;;;;;;;14.23;4.60;;;11.60;99.90;;;;;;6003358;23;20015;-89
2022/10/02 06:29:19;;;;;;;13.77;4.18;;;11.70;99.90;;;;;;6003208;23;20011;-88
2022/10/02 06:32:02;;;;;;;13.68;3.90;;;11.70;99.90;;;;;;6003049;23;20111;-89
2022/10/02 06:34:28;;;;;;;14.23;4.28;;;11.70;99.90;;;;;;6002905;23;20027;-89
2022/10/02 06:37:12;;;;;;;15.43;4.22;;;11.80;99.90;;;;;;6003955;23;20020;-88
2022/10/02 06:40:01;;;;;;;14.15;3.78;;;11.70;99.90;;;;;;5998977;23;20400;-88
2022/10/02 06:42:41;;;;;;;16.55;4.18;;;11.80;99.90;;;;;;6003381;23;20140;-88
2022/10/02 06:45:13;;;;;;;14.38;4.25;;;11.90;99.90;;;;;;6003255;23;20357;-89
2022/10/02 06:47:49;;;;;;;16.23;3.88;;;11.90;99.90;;;;;;5977314;23;20083;-87
2022/10/02 06:50:38;;;;;;;15.10;4.18;;;12.00;99.90;;;;;;6009479;23;20100;-88
2022/10/02 06:53:25;;;;;;;15.70;4.00;;;12.10;99.90;;;;;;6014446;23;20027;-89
2022/10/02 06:56:04;;;;;;;12.25;3.78;;;12.10;99.90;;;;;;6001814;23;20024;-90
2022/10/02 06:58:46;;;;;;;15.65;3.88;;;12.20;99.90;;;;;;6002126;23;20020;-91
2022/10/02 07:01:41;;;;;;;18.40;4.10;;;12.20;99.90;;;;;;5998605;23;20345;-90
2022/10/02 07:04:10;;;;;;;14.85;4.30;;;12.30;99.90;;;;;;6002888;23;20468;-89
2022/10/02 07:06:47;;;;;;;18.83;4.68;;;12.40;99.90;;;;;;5978984;23;20106;-87
2022/10/02 07:09:34;;;;;;;15.82;4.15;;;12.50;99.90;;;;;;6003528;23;20020;-89
2022/10/02 07:12:30;;;;;;;19.20;4.60;;;12.60;99.90;;;;;;6004273;23;20019;-87
2022/10/02 07:15:18;;;;;;;15.93;4.63;;;12.70;99.90;;;;;;6001673;23;20035;-88
2022/10/02 07:18:09;;;;;;;16.95;3.72;;;12.70;99.90;;;;;;6004139;23;20144;-88
2022/10/02 07:21:02;;;;;;;13.77;3.85;;;12.80;99.90;;;;;;5996524;23;20043;-89
2022/10/02 07:23:44;;;;;;;16.45;3.72;;;12.90;99.90;;;;;;6000601;23;20068;-89
2022/10/02 07:26:33;;;;;;;12.95;3.70;;;13.10;99.90;;;;;;6003403;23;20011;-89
2022/10/02 07:29:16;;;;;;;11.73;3.47;;;13.20;99.90;;;;;;6002226;23;20042;-89
2022/10/02 07:31:48;;;;;;;14.00;3.75;;;13.30;99.90;;;;;;6002203;23;20016;-88
2022/10/02 07:34:26;;;;;;;18.45;4.13;;;13.40;99.90;;;;;;6002730;23;20034;-89
2022/10/02 07:37:21;;;;;;;13.65;4.00;;;13.60;99.90;;;;;;6001599;23;20020;-89
2022/10/02 07:40:11;;;;;;;13.15;3.88;;;13.70;99.90;;;;;;5894744;24;20043;-90
2022/10/02 07:43:01;;;;;;;12.70;3.33;;;13.80;99.90;;;;;;5894170;24;20373;-88
2022/10/02 07:45:42;;;;;;;16.42;3.30;;;13.80;99.90;;;;;;5895043;24;20017;-91
2022/10/02 07:48:11;;;;;;;;;;;13.90;99.90;;;;;;5893328;24;20100;-88
2022/10/02 07:51:45;;;;;;;15.55;3.95;;;13.80;99.90;;;;;;5917193;24;19929;-90
2022/10/02 07:54:06;;;;;;;12.77;3.22;;;13.80;99.90;;;;;;5916627;24;20025;-91
2022/10/02 07:56:34;;;;;;;13.50;3.13;;;13.80;99.90;;;;;;5894388;24;20598;-90
2022/10/02 07:59:09;;;;;;;16.50;4.05;;;13.80;99.90;;;;;;5894724;24;20017;-92
2022/10/02 08:01:40;;;;;;;13.07;3.28;;;13.70;99.90;;;;;;5893884;24;20025;-92
2022/10/02 08:04:28;;;;;;;17.15;3.35;;;13.80;99.90;;;;;;5893929;24;20451;-90
2022/10/02 08:07:01;;;;;;;15.88;3.78;;;13.90;99.90;;;;;;5893378;24;20431;-89
2022/10/02 08:09:46;;;;;;;12.48;2.90;;;14.00;99.90;;;;;;5896223;24;20082;-91
2022/10/02 08:12:36;;;;;;;14.27;3.60;;;14.10;99.90;;;;;;5919688;24;20028;-92
2022/10/02 08:15:04;;;;;;;15.18;3.83;;;14.20;99.90;;;;;;5919291;23;20052;-89
2022/10/02 08:17:54;;;;;;;13.65;3.70;;;14.30;99.90;;;;;;6004395;23;20011;-88
2022/10/02 08:20:37;;;;;;;14.82;3.30;;;14.40;99.90;;;;;;6010377;23;20015;-89
2022/10/02 08:23:55;;;;;;;10.88;3.00;;;14.40;99.90;;;;;;6012099;23;20047;-92
2022/10/02 08:26:41;;;;;;;14.88;3.17;;;14.40;99.90;;;;;;6000152;23;20027;-91
2022/10/02 08:29:10;;;;;;;15.13;3.08;;;14.40;99.90;;;;;;6011387;23;20202;-90
2022/10/02 08:31:36;;;;;;;12.63;3.30;;;14.40;99.90;;;;;;6007039;23;20071;-90
2022/10/02 08:34:16;;;;;;;12.95;3.42;;;14.50;99.90;;;;;;6004762;23;20589;-92
2022/10/02 08:37:13;;;;;;;13.10;3.25;;;14.50;99.90;;;;;;6003748;23;20019;-93
2022/10/02 08:39:49;;;;;;;13.25;3.05;;;14.50;99.90;;;;;;6002573;23;20011;-90
2022/10/02 08:42:58;;;;;;;12.32;3.13;;;14.50;99.90;;;;;;6002374;23;20019;-91
2022/10/02 08:45:49;;;;;;;15.88;3.10;;;14.60;99.90;;;;;;6002779;23;20019;-94
2022/10/02 08:48:49;;;;;;;12.70;3.03;;;14.60;99.90;;;;;;6003910;23;20111;-91
2022/10/02 08:52:02;;;;;;;13.15;3.00;;;14.60;99.90;;;;;;5979598;23;20020;-92
2022/10/02 08:54:31;;;;;;;16.20;3.83;;;14.70;99.90;;;;;;6015056;23;20022;-90
2022/10/02 08:57:19;;;;;;;15.85;3.85;;;14.70;99.90;;;;;;6001873;23;20015;-94
2022/10/02 09:00:11;;;;;;;16.17;3.17;;;14.80;99.90;;;;;;6002690;23;20019;-90
2022/10/02 09:03:13;;;;;;;10.70;2.63;;;14.90;99.90;;;;;;6006382;23;20020;-91
2022/10/02 09:05:58;;;;;;;13.43;3.30;;;15.00;99.90;;;;;;6015897;23;20024;-92
2022/10/02 09:08:57;;;;;;;15.90;2.75;;;15.10;99.90;;;;;;6011425;23;20043;-91
2022/10/02 09:11:56;;;;;;;13.05;2.85;;;15.10;99.90;;;;;;6003724;23;20078;-93
2022/10/02 09:14:42;;;;;;;11.32;2.83;;;15.20;99.90;;;;;;6004120;23;20625;-91
2022/10/02 09:17:47;;;;;;;14.02;3.30;;;15.30;99.90;;;;;;6004035;23;20024;-91
2022/10/02 09:20:40;;;;;;;13.00;2.92;;;15.40;99.90;;;;;;6005928;23;20051;-91
2022/10/02 09:23:24;;;;;;;11.73;3.05;;;15.40;99.90;;;;;;6003354;23;20076;-90
2022/10/02 09:26:11;;;;;;;14.88;3.40;;;15.60;99.90;;;;;;5978730;23;20019;-90
2022/10/02 09:29:14;;;;;;;12.60;2.88;;;15.60;99.90;;;;;;6003496;23;20030;-90
2022/10/02 09:32:02;;;;;;;12.38;3.00;;;15.70;99.90;;;;;;6003181;23;20026;-89
2022/10/02 09:34:38;;;;;;;13.02;3.25;;;15.70;99.90;;;;;;6002029;23;20047;-90
2022/10/02 09:37:07;;;;;;;10.77;2.75;;;15.70;99.90;;;;;;6002825;23;20098;-90
2022/10/02 09:39:46;;;;;;;12.02;2.92;;;15.70;99.90;;;;;;5980341;23;20026;-88
2022/10/02 09:42:43;;;;;;;13.75;2.70;;;15.70;99.90;;;;;;6005200;23;20438;-90
2022/10/02 09:45:18;;;;;;;12.70;3.25;;;15.70;99.90;;;;;;5965652;23;20020;-90
2022/10/02 09:48:30;;;;;;;13.73;2.85;;;15.70;99.90;;;;;;6004019;23;20338;-91
2022/10/02 09:51:03;;;;;;;13.02;3.15;;;15.70;99.90;;;;;;6002947;23;20354;-91
2022/10/02 09:53:53;;;;;;;11.57;2.70;;;15.70;99.90;;;;;;6002693;23;20030;-88
2022/10/02 09:56:57;;;;;;;14.73;3.17;;;15.70;99.90;;;;;;6003205;23;20023;-88
2022/10/02 10:00:03;;;;;;;11.60;2.67;;;15.70;99.90;;;;;;6004072;23;20034;-90
2022/10/02 10:02:47;;;;;;;12.73;3.42;;;15.70;99.90;;;;;;6002645;23;20016;-90
2022/10/02 10:05:12;;;;;;;12.20;2.83;;;15.80;99.90;;;;;;6003952;23;20016;-89
2022/10/02 10:08:14;;;;;;;12.40;2.50;;;16.00;99.90;;;;;;6003617;23;20027;-89
2022/10/02 10:11:12;;;;;;;12.73;2.55;;;16.10;99.90;;;;;;5917804;24;20021;-91
2022/10/02 10:13:59;;;;;;;12.38;2.75;;;16.30;99.90;;;;;;5916452;24;20060;-94
2022/10/02 10:16:33;;;;;;;13.38;2.63;;;16.30;99.90;;;;;;5918321;24;20025;-92
2022/10/02 10:19:21;;;;;;;14.05;2.97;;;16.40;99.90;;;;;;5918651;24;20021;-91
2022/10/02 10:22:25;;;;;;;12.10;2.30;;;16.50;99.90;;;;;;5896028;24;20037;-90
2022/10/02 10:25:28;;;;;;;12.90;2.78;;;16.60;99.90;;;;;;5895378;24;20070;-91
2022/10/02 10:28:00;;;;;;;9.40;2.35;;;16.80;99.90;;;;;;5894636;24;20104;-90
2022/10/02 10:30:26;;;;;;;12.52;2.70;;;17.00;99.90;;;;;;5919055;24;20017;-89
2022/10/02 10:33:10;;;;;;;12.55;2.80;;;17.00;99.90;;;;;;5918955;24;20021;-90
2022/10/02 10:35:47;;;;;;;12.85;2.95;;;17.00;99.90;;;;;;5896721;24;20137;-92
2022/10/02 10:38:31;;;;;;;13.75;3.30;;;16.90;99.90;;;;;;5895947;24;20510;-93
2022/10/02 10:41:21;;;;;;;15.18;2.90;;;16.90;99.90;;;;;;5919398;24;20048;-89
2022/10/02 10:44:24;;;;;;;13.20;2.78;;;16.90;99.90;;;;;;5932447;23;20157;-95
2022/10/02 10:47:14;;;;;;;14.50;2.97;;;16.90;99.90;;;;;;5981507;23;20086;-93
2022/10/02 10:49:42;;;;;;;11.15;2.60;;;16.90;99.90;;;;;;6004572;23;20011;-94
2022/10/02 10:52:47;;;;;;;16.40;2.78;;;16.90;99.90;;;;;;5981838;23;20019;-94
2022/10/02 10:55:45;;;;;;;12.90;2.90;;;16.90;99.90;;;;;;5971464;23;20112;-92
2022/10/02 10:58:23;;;;;;;13.40;2.78;;;16.80;99.90;;;;;;5981781;23;20063;-94
2022/10/02 11:01:18;;;;;;;11.80;2.63;;;16.90;99.90;;;;;;5982340;23;20324;-94
2022/10/02 11:04:05;;;;;;;12.07;2.50;;;17.00;99.90;;;;;;6008640;23;20015;-95
2022/10/02 11:06:31;;;;;;;11.05;2.60;;;17.00;99.90;;;;;;5985056;23;20030;-96
2022/10/02 11:09:30;;;;;;;12.40;3.42;;;17.00;99.90;;;;;;5985474;23;20016;-96
2022/10/02 11:12:11;;;;;;;11.50;2.50;;;17.10;99.90;;;;;;5983265;23;20015;-95
2022/10/02 11:14:37;;;;;;;11.02;2.78;;;17.10;99.90;;;;;;5981963;23;20019;-94
2022/10/02 11:17:30;;;;;;;12.98;2.38;;;17.10;99.90;;;;;;5984508;23;20148;-95
2022/10/02 11:20:09;;;;;;;9.70;2.40;;;17.10;99.90;;;;;;6014657;23;20026;-91
2022/10/02 11:22:36;;;;;;;9.32;1.70;;;17.10;99.90;;;;;;6022326;23;20015;-93
2022/10/02 11:25:26;;;;;;;14.05;2.60;;;17.20;99.90;;;;;;6015668;23;20022;-93
2022/10/02 11:28:17;;;;;;;10.30;2.40;;;17.20;99.90;;;;;;5985144;23;20383;-94
2022/10/02 11:30:51;;;;;;;13.73;2.70;;;17.20;99.90;;;;;;5986862;23;20020;-95
2022/10/02 11:33:39;;;;;;;12.95;3.10;;;17.10;99.90;;;;;;6008707;23;20020;-96
2022/10/02 11:36:23;;;;;;;10.15;2.25;;;16.70;99.90;;;;;;5900336;24;20040;-95
2022/10/02 11:39:32;;;;;;;11.05;2.70;;;16.40;99.90;;;;;;5921012;24;20049;-93
2022/10/02 11:42:31;;;;;;;11.40;2.65;;;16.10;99.90;;;;;;5898290;24;20032;-93
2022/10/02 11:45:17;;;;;;;13.70;2.65;;;15.80;99.90;;;;;;5875207;24;20337;-92
2022/10/02 11:48:20;;;;;;;10.98;2.55;;;15.70;99.90;;;;;;5920516;24;20025;-92
2022/10/02 11:50:58;;;;;;;11.10;2.60;;;15.50;99.90;;;;;;5920395;24;20077;-91
2022/10/02 11:53:38;;;;;;;14.10;3.50;;;15.50;99.90;;;;;;5919773;24;20351;-92
2022/10/02 11:56:10;;;;;;;14.13;3.30;;;15.50;99.90;;;;;;5896785;24;20392;-92
2022/10/02 11:58:51;;;;;;;18.38;3.58;;;15.40;99.90;;;;;;5921028;24;20096;-92
2022/10/02 12:01:37;;;;;;;14.07;2.97;;;15.40;99.90;;;;;;5897756;24;20118;-92
2022/10/02 12:04:21;;;;;;;15.15;3.55;;;15.50;99.90;;;;;;5921692;24;20561;-95
2022/10/02 12:07:05;;;;;;;14.10;2.90;;;15.50;99.90;;;;;;5898097;24;20080;-92
2022/10/02 12:10:03;;;;;;;13.65;3.15;;;15.60;99.90;;;;;;5921620;24;20416;-92
2022/10/02 12:12:33;;;;;;;12.98;3.30;;;15.80;99.90;;;;;;5941398;23;20339;-92
2022/10/02 12:15:03;;;;;;;13.90;3.00;;;15.90;99.90;;;;;;6006501;23;20023;-94
2022/10/02 12:17:32;;;;;;;12.50;3.00;;;16.00;99.90;;;;;;6005605;23;20032;-95
2022/10/02 12:29:41;;;;;;;13.65;3.08;;;16.70;99.90;;;;;;6038635;23;20016;-93
2022/10/02 12:32:40;;;;;;;11.52;2.28;;;16.70;99.90;;;;;;6002637;23;20018;-93
2022/10/02 12:35:08;;;;;;;12.50;2.67;;;16.80;99.90;;;;;;6029955;23;20020;-94
2022/10/02 12:38:02;;;;;;;14.15;2.63;;;16.70;99.90;;;;;;6003838;23;20037;-95
2022/10/02 12:40:55;;;;;;;12.77;2.80;;;16.70;99.90;;;;;;5996960;23;20020;-94
2022/10/02 12:43:59;;;;;;;11.57;2.47;;;16.50;99.90;;;;;;5984352;23;20023;-94
2022/10/02 12:46:59;;;;;;;11.82;2.95;;;16.50;99.90;;;;;;6007994;23;20015;-96
2022/10/02 12:49:44;;;;;;;11.18;2.38;;;16.50;99.90;;;;;;5923048;24;20065;-93
2022/10/02 12:52:20;;;;;;;14.52;2.70;;;16.60;99.90;;;;;;5923549;24;20017;-92
2022/10/02 12:55:26;;;;;;;11.05;2.30;;;16.60;99.90;;;;;;5922797;24;20057;-93
2022/10/02 12:58:16;;;;;;;10.85;2.53;;;16.70;99.90;;;;;;5901029;24;20023;-94
2022/10/02 13:01:00;;;;;;;14.88;2.60;;;16.60;99.90;;;;;;5901780;24;20017;-96
2022/10/02 13:03:47;;;;;;;13.02;2.70;;;16.60;99.90;;;;;;5906001;24;20021;-95
2022/10/02 13:06:31;;;;;;;13.35;2.65;;;16.70;99.90;;;;;;5901027;24;20021;-93
2022/10/02 13:09:21;;;;;;;10.32;2.35;;;16.60;99.90;;;;;;5922793;24;20049;-95
2022/10/02 13:12:02;;;;;;;9.07;2.30;;;16.80;99.90;;;;;;5898595;24;20104;-94
2022/10/02 13:14:45;;;;;;;11.05;2.58;;;17.00;99.90;;;;;;5922525;24;20096;-94
2022/10/02 13:17:29;;;;;;;13.10;2.58;;;17.00;99.90;;;;;;5923851;24;20040;-94
2022/10/02 13:20:05;;;;;;;12.32;2.92;;;17.10;99.90;;;;;;5923513;24;20017;-95
2022/10/02 13:22:37;;;;;;;11.35;2.92;;;17.10;99.90;;;;;;5923401;24;20024;-95
2022/10/02 13:25:34;;;;;;;11.95;2.70;;;17.10;99.90;;;;;;5924489;23;20078;-94
2022/10/02 13:28:36;;;;;;;11.07;2.45;;;17.10;99.90;;;;;;5984060;23;20020;-96
2022/10/02 13:31:35;;;;;;;10.07;1.92;;;17.20;99.90;;;;;;6007848;23;20031;-94
2022/10/02 13:34:21;;;;;;;8.27;1.52;;;17.30;99.90;;;;;;5988895;23;20060;-96
2022/10/02 13:37:01;;;;;;;9.57;1.85;;;17.10;99.90;;;;;;5996188;23;20023;-96
2022/10/02 13:40:11;;;;;;;9.90;2.10;;;16.90;99.90;;;;;;5986598;23;20020;-95
2022/10/02 13:43:09;;;;;;;8.68;2.00;;;16.70;99.90;;;;;;6008170;23;20019;-94
2022/10/02 13:46:04;;;;;;;8.05;1.77;;;16.60;99.90;;;;;;5984809;23;20023;-95
2022/10/02 13:48:54;;;;;;;8.05;1.67;;;16.60;99.90;;;;;;6010080;23;20025;-96
2022/10/02 13:51:23;;;;;;;11.45;2.25;;;16.50;99.90;;;;;;5987536;23;20124;-95
2022/10/02 13:54:03;;;;;;;11.18;2.25;;;16.50;99.90;;;;;;6006303;23;20063;-93
2022/10/02 13:56:44;;;;;;;9.80;2.38;;;16.50;99.90;;;;;;5983213;23;20016;-94
2022/10/02 13:59:28;;;;;;;10.95;2.15;;;16.60;99.90;;;;;;6009445;23;20019;-96
2022/10/02 14:02:30;;;;;;;10.68;2.40;;;16.60;99.90;;;;;;6007932;23;20015;-91
2022/10/02 14:05:13;;;;;;;10.63;2.33;;;16.80;99.90;;;;;;6009185;23;20342;-96